Time;durP1;ratioP1;P1;durP2;ratioP2;P2;SDS_P1;SDS_P2;PMS_P1;PMS_P2;Temp;Humidity;BMP_temperature;BMP_pressure;BME280_temperature;BME280_humidity;BME280_pressure;Samples;Min_cycle;Max_cycle;Signal;HPM_P1;HPM_P2
2022/02/17 04:26:57;;;;;;;;;;;;;;;3.53;98.23;98507.91;5195814;23;20514;-80
2022/02/17 04:29:23;;;;;;;;;;;;;;;3.38;98.10;98506.69;4949466;28;20033;-80
2022/02/17 04:31:48;;;;;;;;;;;;;;;3.28;97.72;98524.44;4950666;28;19938;-79
2022/02/17 04:34:13;;;;;;;;;;;;;;;3.19;97.82;98524.78;4950209;29;20373;-80
2022/02/17 04:36:38;;;;;;;;;;;;;;;3.14;97.80;98533.66;4951722;29;19985;-88
2022/02/17 04:39:04;;;;;;;;;;;;;;;3.05;97.98;98509.50;4936119;29;19953;-80
2022/02/17 04:44:13;;;;;;;;;;;;;;;3.02;98.27;98507.00;4951429;29;19942;-80
2022/02/17 04:46:38;;;;;;;;;;;;;;;2.94;98.35;98526.47;4951162;28;19923;-80
2022/02/17 04:49:03;;;;;;;;;;;;;;;3.00;98.28;98524.50;4951858;29;20378;-80
2022/02/17 04:51:29;;;;;;;;;;;;;;;2.89;98.39;98530.09;4952333;28;20330;-78
2022/02/17 04:53:54;;;;;;;;;;;;;;;2.88;98.13;98553.69;4952338;29;19969;-79
2022/02/17 04:56:19;;;;;;;;;;;;;;;2.95;98.82;98563.03;4949456;28;20569;-80
2022/02/17 04:58:44;;;;;;;;;;;;;;;3.01;100.00;98562.00;4950521;28;19922;-79
2022/02/17 05:01:10;;;;;;;;;;;;;;;2.80;100.00;98553.06;4951780;28;19919;-79
2022/02/17 05:03:35;;;;;;;;;;;;;;;2.81;100.00;98560.00;4952311;28;20282;-80
2022/02/17 05:06:02;;;;;;;;;;;;;;;2.78;100.00;98575.81;4951978;29;19919;-79
2022/02/17 05:08:28;;;;;;;;;;;;;;;2.78;100.00;98555.72;4949997;28;20266;-79
2022/02/17 05:10:53;;;;;;;;;;;;;;;2.63;100.00;98580.59;4950302;28;20147;-79
2022/02/17 05:13:18;;;;;;;;;;;;;;;2.63;100.00;98577.97;4951711;29;19969;-79
2022/02/17 05:15:44;;;;;;;;;;;;;;;2.58;99.66;98586.84;4951723;28;20178;-79
2022/02/17 05:18:09;;;;;;;;;;;;;;;2.60;99.79;98583.31;4952050;29;20386;-79
2022/02/17 05:20:35;;;;;;;;;;;;;;;2.61;99.69;98582.38;4952121;29;19926;-79
2022/02/17 05:23:01;;;;;;;;;;;;;;;2.41;98.99;98571.66;4951391;28;19953;-81
2022/02/17 05:25:26;;;;;;;;;;;;;;;2.34;98.69;98582.28;4932591;29;20572;-79
2022/02/17 05:27:52;;;;;;;;;;;;;;;2.39;98.22;98583.91;4948718;28;19933;-80
2022/02/17 05:30:17;;;;;;;;;;;;;;;2.29;97.57;98594.63;4949124;28;20444;-81
2022/02/17 08:48:13;;;;;;;;;;;;;;;4.16;92.26;98967.16;4900686;29;20396;-79
2022/02/17 08:50:43;;;;;;;;;;;;;;;4.16;91.60;98961.91;4890379;29;19935;-82
2022/02/17 08:53:08;;;;;;;;;;;;;;;4.13;90.79;98948.88;4908872;29;19998;-80
2022/02/17 08:55:33;;;;;;;;;;;;;;;4.24;90.41;98952.94;4892626;29;20379;-80
2022/02/17 08:57:59;;;;;;;;;;;;;;;4.22;90.25;98945.09;4904621;29;20294;-87
2022/02/17 09:00:24;;;;;;;;;;;;;;;4.21;89.92;98951.25;4909199;29;19915;-78
2022/02/17 09:02:49;;;;;;;;;;;;;;;4.30;89.33;98960.63;4891096;29;19923;-81
2022/02/17 09:05:15;;;;;;;;;;;;;;;4.21;89.15;98964.34;4893091;29;20398;-79
2022/02/17 09:07:40;;;;;;;;;;;;;;;4.21;89.09;98950.41;4892038;29;20002;-79
2022/02/17 09:10:06;;;;;;;;;;;;;;;4.22;88.85;98955.59;4908148;29;20689;-79
2022/02/17 09:12:32;;;;;;;;;;;;;;;4.22;88.57;98968.72;4889736;29;20379;-80
2022/02/17 09:14:58;;;;;;;;;;;;;;;4.21;88.08;98969.59;4907585;29;19923;-79
2022/02/17 09:17:23;;;;;;;;;;;;;;;4.27;87.70;98973.81;4892439;29;19923;-80
2022/02/17 09:19:48;;;;;;;;;;;;;;;4.30;87.31;98971.94;4908405;29;19926;-79
2022/02/17 09:22:13;;;;;;;;;;;;;;;4.33;86.89;98966.63;4909077;29;19929;-88
2022/02/17 09:24:39;;;;;;;;;;;;;;;4.33;86.85;98981.50;4891018;29;20002;-79
2022/02/17 09:27:04;;;;;;;;;;;;;;;4.38;86.85;98987.47;4891666;29;19923;-85
2022/02/17 09:29:29;;;;;;;;;;;;;;;4.33;86.89;98984.97;4891715;29;19923;-79
2022/02/17 09:31:55;;;;;;;;;;;;;;;4.36;86.81;98998.00;4905651;29;20533;-79
2022/02/17 09:34:20;;;;;;;;;;;;;;;4.45;86.69;99007.38;4902897;29;19939;-83
2022/02/17 09:36:46;;;;;;;;;;;;;;;4.45;86.93;99017.88;4905868;29;19986;-79
2022/02/17 09:39:11;;;;;;;;;;;;;;;4.54;86.85;99012.31;4905535;29;19983;-79
2022/02/17 09:41:37;;;;;;;;;;;;;;;4.53;86.55;99002.75;4901275;29;19930;-81
2022/02/17 09:44:06;;;;;;;;;;;;;;;4.48;86.40;99011.66;4907619;29;19923;-83
2022/02/17 09:46:33;;;;;;;;;;;;;;;4.54;86.60;98996.56;4904324;29;19931;-81
2022/02/17 09:49:01;;;;;;;;;;;;;;;4.56;85.92;98999.16;4908333;29;19923;-83
2022/02/17 09:51:27;;;;;;;;;;;;;;;4.59;85.63;99003.47;4905316;29;20365;-82
2022/02/17 09:53:53;;;;;;;;;;;;;;;4.53;85.44;98989.63;4923883;29;19923;-80
2022/02/17 09:56:18;;;;;;;;;;;;;;;4.54;85.56;98996.56;4908881;29;19922;-80
2022/02/17 09:58:44;;;;;;;;;;;;;;;4.54;85.44;98991.31;4924530;29;19918;-80
2022/02/17 10:01:12;;;;;;;;;;;;;;;4.58;85.02;99001.72;4919587;29;19923;-87
2022/02/17 10:03:38;;;;;;;;;;;;;;;4.63;84.52;99010.34;4918811;29;19923;-88
2022/02/17 10:06:03;;;;;;;;;;;;;;;4.63;84.18;99010.34;4920610;29;19981;-82
2022/02/17 10:08:28;;;;;;;;;;;;;;;4.62;83.71;99024.34;4920362;29;20374;-80
2022/02/17 10:10:53;;;;;;;;;;;;;;;4.66;83.72;99033.84;4919209;29;20435;-85
2022/02/17 10:13:19;;;;;;;;;;;;;;;4.67;83.54;99030.31;4901944;29;19982;-84
2022/02/17 10:15:50;;;;;;;;;;;;;;;4.67;83.16;99051.31;4918239;29;20081;-82
2022/02/17 10:18:18;;;;;;;;;;;;;;;4.71;82.66;99034.56;4926657;29;19918;-83
2022/02/17 10:20:57;;;;;;;;;;;;;;;4.71;82.42;99034.56;4918451;29;20147;-84
2022/02/17 10:23:24;;;;;;;;;;;;;;;4.73;82.30;99038.00;4932878;29;19922;-79
2022/02/17 10:26:16;;;;;;;;;;;;;;;4.76;82.33;99055.44;4925327;29;19977;-80
2022/02/17 10:28:42;;;;;;;;;;;;;;;4.73;82.44;99070.34;4923750;29;19930;-85
2022/02/17 10:31:20;;;;;;;;;;;;;;;4.66;82.41;99078.44;4924464;29;20410;-79
2022/02/17 10:33:46;;;;;;;;;;;;;;;4.71;82.62;99084.44;4931671;29;19926;-84
2022/02/17 10:36:12;;;;;;;;;;;;;;;4.72;82.19;99075.63;4925103;29;19966;-79
2022/02/17 10:38:38;;;;;;;;;;;;;;;4.72;81.99;99083.50;4907790;29;20242;-80
2022/02/17 10:41:04;;;;;;;;;;;;;;;4.77;81.76;99076.38;4929912;29;19923;-79
2022/02/17 10:43:30;;;;;;;;;;;;;;;4.89;82.03;99083.00;4906999;29;19930;-81
2022/02/17 10:46:03;;;;;;;;;;;;;;;4.84;82.09;99092.81;4921307;29;19923;-84
2022/02/17 10:48:28;;;;;;;;;;;;;;;4.87;82.08;99098.81;4922094;29;20606;-79
2022/02/17 10:51:08;;;;;;;;;;;;;;;4.85;82.22;99086.63;4923831;29;20275;-83
2022/02/17 10:53:35;;;;;;;;;;;;;;;4.86;82.29;99097.09;4927295;29;19927;-85
2022/02/17 10:56:02;;;;;;;;;;;;;;;4.85;81.97;99095.38;4925913;29;19919;-80
2022/02/17 10:58:30;;;;;;;;;;;;;;;4.94;81.69;99099.47;4927873;29;20013;-79
2022/02/17 11:01:00;;;;;;;;;;;;;;;4.97;82.02;99124.78;4925197;29;20645;-87
2022/02/17 11:03:26;;;;;;;;;;;;;;;4.99;82.46;99138.72;4924506;29;19927;-79
2022/02/17 11:05:52;;;;;;;;;;;;;;;5.13;82.40;99146.19;4924771;29;20198;-79
2022/02/17 11:08:17;;;;;;;;;;;;;;;5.06;82.41;99145.53;4923252;29;20322;-82
2022/02/17 11:10:43;;;;;;;;;;;;;;;5.02;82.20;99143.88;4924853;29;19930;-82
2022/02/17 11:13:11;;;;;;;;;;;;;;;5.03;82.50;99141.22;4924986;29;19923;-80
2022/02/17 11:15:38;;;;;;;;;;;;;;;5.06;82.90;99146.38;4922640;29;20826;-80
2022/02/17 11:18:04;;;;;;;;;;;;;;;5.01;82.62;99153.53;4922372;29;19927;-79
2022/02/17 11:20:29;;;;;;;;;;;;;;;5.04;82.36;99136.81;4923774;29;20287;-82
2022/02/17 11:22:55;;;;;;;;;;;;;;;4.98;81.61;99129.13;4929003;29;19925;-79
2022/02/17 11:25:36;;;;;;;;;;;;;;;4.98;81.62;99131.75;4922838;29;20190;-82
2022/02/17 11:28:03;;;;;;;;;;;;;;;4.97;81.43;99146.66;4902086;29;19962;-80
2022/02/17 11:30:30;;;;;;;;;;;;;;;4.99;81.26;99154.47;4922485;29;20425;-79
2022/02/17 11:33:14;;;;;;;;;;;;;;;4.96;81.20;99150.16;4920886;29;19994;-83
2022/02/17 11:35:39;;;;;;;;;;;;;;;5.01;81.36;99155.28;4918628;29;19933;-80
2022/02/17 11:38:23;;;;;;;;;;;;;;;4.99;81.32;99155.31;4923436;29;20005;-79
2022/02/17 11:41:02;;;;;;;;;;;;;;;5.00;81.52;99141.31;4917590;29;20049;-86
2022/02/17 11:43:30;;;;;;;;;;;;;;;5.01;81.61;99131.66;4921279;29;19927;-88
2022/02/17 11:45:56;;;;;;;;;;;;;;;5.00;81.23;99132.56;4904437;29;20565;-85
2022/02/17 11:48:42;;;;;;;;;;;;;;;4.98;80.48;99121.25;4922524;29;20458;-84
2022/02/17 11:51:14;;;;;;;;;;;;;;;5.00;80.13;99140.44;4920231;29;20504;-85
2022/02/17 11:53:40;;;;;;;;;;;;;;;5.02;80.02;99138.63;4922699;29;19967;-86
2022/02/17 11:56:06;;;;;;;;;;;;;;;5.01;79.81;99136.91;4918888;29;19923;-85
2022/02/17 11:58:40;;;;;;;;;;;;;;;4.99;79.55;99142.19;4921224;29;20367;-79
2022/02/17 12:01:30;;;;;;;;;;;;;;;5.05;79.52;99154.28;4914754;29;19927;-80
2022/02/17 12:04:01;;;;;;;;;;;;;;;5.09;79.63;99145.44;4916080;29;19969;-83
2022/02/17 12:06:45;;;;;;;;;;;;;;;5.12;79.92;99150.56;4915089;29;19933;-81
2022/02/17 12:09:41;;;;;;;;;;;;;;;5.22;80.06;99156.41;4926022;29;19927;-80
2022/02/17 12:12:06;;;;;;;;;;;;;;;5.17;79.89;99151.31;4923829;29;19941;-80
2022/02/17 12:14:31;;;;;;;;;;;;;;;5.23;80.29;99164.25;4922003;29;19923;-84
2022/02/17 12:17:02;;;;;;;;;;;;;;;5.27;80.19;99162.38;4925816;29;19982;-80
2022/02/17 12:19:28;;;;;;;;;;;;;;;5.25;79.82;99172.94;4920743;29;19931;-82
2022/02/17 12:22:04;;;;;;;;;;;;;;;5.27;79.51;99173.75;4920698;29;20050;-82
2022/02/17 12:24:29;;;;;;;;;;;;;;;5.27;79.23;99179.00;4926221;29;19927;-82
2022/02/17 12:26:55;;;;;;;;;;;;;;;5.26;79.00;99186.91;4924693;29;19989;-83
2022/02/17 12:29:20;;;;;;;;;;;;;;;5.42;79.27;99177.63;4925768;29;20263;-80
2022/02/17 12:31:46;;;;;;;;;;;;;;;5.37;78.95;99166.44;4906859;29;19973;-85
2022/02/17 12:34:12;;;;;;;;;;;;;;;5.28;78.69;99166.72;4925564;29;19933;-82
2022/02/17 12:36:37;;;;;;;;;;;;;;;5.32;78.78;99149.09;4903875;29;20321;-81
2022/02/17 12:39:06;;;;;;;;;;;;;;;5.30;78.43;99148.28;4920335;29;20464;-83
2022/02/17 12:41:31;;;;;;;;;;;;;;;5.33;78.28;99149.06;4923765;29;19934;-79
2022/02/17 12:43:56;;;;;;;;;;;;;;;5.40;78.16;99154.97;4925827;29;19927;-79
2022/02/17 12:46:22;;;;;;;;;;;;;;;5.38;78.35;99159.44;4918377;29;19927;-80
2022/02/17 12:48:47;;;;;;;;;;;;;;;5.40;78.46;99166.34;4916914;29;19938;-85
2022/02/17 12:51:22;;;;;;;;;;;;;;;5.58;79.59;99162.25;4926370;29;20649;-81
2022/02/17 12:53:50;;;;;;;;;;;;;;;5.68;80.67;99172.47;4902505;29;20078;-80
2022/02/17 12:56:19;;;;;;;;;;;;;;;5.60;81.95;99168.34;4923351;29;19919;-83
2022/02/17 12:58:44;;;;;;;;;;;;;;;5.57;83.03;99172.84;4930431;29;20458;-81
2022/02/17 13:01:19;;;;;;;;;;;;;;;5.51;83.80;99160.75;4916365;29;19926;-80
2022/02/17 13:03:44;;;;;;;;;;;;;;;5.41;84.58;99173.31;4908711;29;19927;-80
2022/02/17 13:06:21;;;;;;;;;;;;;;;5.36;85.38;99175.22;4924877;29;19989;-83
2022/02/17 13:08:47;;;;;;;;;;;;;;;5.26;86.45;99169.41;4922656;29;19929;-85
2022/02/17 13:11:13;;;;;;;;;;;;;;;5.23;88.10;99164.25;4917090;29;20407;-80
2022/02/17 13:13:39;;;;;;;;;;;;;;;5.36;90.44;99153.34;4908619;29;19919;-80
2022/02/17 13:16:04;;;;;;;;;;;;;;;5.49;93.59;99138.03;4904031;29;20576;-80
2022/02/17 13:18:29;;;;;;;;;;;;;;;5.83;97.17;99141.28;4916597;29;19930;-82
2022/02/17 13:21:11;;;;;;;;;;;;;;;6.14;100.00;99131.50;4923791;29;19958;-80
2022/02/17 13:23:36;;;;;;;;;;;;;;;6.28;100.00;99118.72;4919182;29;19931;-81
2022/02/17 13:26:02;;;;;;;;;;;;;;;6.39;100.00;99128.00;4904706;29;19926;-80
2022/02/17 13:28:27;;;;;;;;;;;;;;;6.49;100.00;99153.06;4917011;29;19923;-82
2022/02/17 13:30:52;;;;;;;;;;;;;;;6.63;100.00;99123.63;4917918;29;19958;-86
2022/02/17 13:33:18;;;;;;;;;;;;;;;6.73;100.00;99139.03;4920750;29;19923;-86
2022/02/17 13:35:44;;;;;;;;;;;;;;;6.70;100.00;99140.88;4905130;29;19923;-80
2022/02/17 13:38:10;;;;;;;;;;;;;;;6.77;100.00;99157.34;4923789;29;19927;-81
2022/02/17 13:40:49;;;;;;;;;;;;;;;6.75;100.00;99146.84;4922871;29;19919;-80
2022/02/17 13:43:15;;;;;;;;;;;;;;;6.90;100.00;99167.34;4922985;29;19926;-82
2022/02/17 13:45:42;;;;;;;;;;;;;;;7.00;100.00;99161.72;4908701;29;19925;-84
2022/02/17 13:48:25;;;;;;;;;;;;;;;6.96;100.00;99168.88;4933369;29;19922;-80
2022/02/17 13:51:04;;;;;;;;;;;;;;;7.02;100.00;99184.47;4908422;29;19929;-82
2022/02/17 13:53:33;;;;;;;;;;;;;;;7.00;100.00;99180.16;4926013;29;19923;-81
2022/02/17 13:55:59;;;;;;;;;;;;;;;7.03;100.00;99175.63;4920933;29;19928;-80
2022/02/17 13:58:25;;;;;;;;;;;;;;;7.05;100.00;99186.97;4921290;29;19989;-82
2022/02/17 14:00:52;;;;;;;;;;;;;;;7.20;100.00;99168.88;4919143;29;19923;-84
2022/02/17 14:03:21;;;;;;;;;;;;;;;7.07;100.00;99160.59;4923571;29;19922;-80
2022/02/17 14:05:46;;;;;;;;;;;;;;;7.12;100.00;99168.31;4923828;29;20466;-85
2022/02/17 14:08:13;;;;;;;;;;;;;;;7.18;100.00;99162.78;4923893;29;19922;-82
2022/02/17 14:10:38;;;;;;;;;;;;;;;7.37;100.00;99158.53;4919535;29;19934;-80
2022/02/17 14:13:05;;;;;;;;;;;;;;;7.27;100.00;99176.47;4922260;29;19931;-81
2022/02/17 14:15:30;;;;;;;;;;;;;;;7.30;100.00;99178.13;4923836;29;19918;-84
2022/02/17 14:17:55;;;;;;;;;;;;;;;7.32;100.00;99180.69;4908369;29;20755;-80
2022/02/17 14:20:21;;;;;;;;;;;;;;;7.27;100.00;99199.31;4904127;29;19923;-84
2022/02/17 14:22:46;;;;;;;;;;;;;;;7.34;100.00;99190.28;4922778;29;19930;-81
2022/02/17 14:25:11;;;;;;;;;;;;;;;7.38;100.00;99212.09;4918414;29;19931;-83
2022/02/17 14:27:37;;;;;;;;;;;;;;;6.19;100.00;99219.03;4922649;29;19935;-80
2022/02/17 14:30:03;;;;;;;;;;;;;;;4.81;100.00;99225.00;4921758;29;20002;-80
2022/02/17 14:32:28;;;;;;;;;;;;;;;4.18;100.00;99219.69;4929614;29;19927;-80
2022/02/17 14:35:11;;;;;;;;;;;;;;;3.86;99.54;99217.88;4919178;29;20399;-80
2022/02/17 14:37:44;;;;;;;;;;;;;;;3.69;97.70;99222.66;4920665;29;19930;-80
2022/02/17 14:40:11;;;;;;;;;;;;;;;3.50;96.36;99230.09;4921178;29;19930;-81
2022/02/17 14:42:36;;;;;;;;;;;;;;;3.34;95.75;99235.66;4921701;29;20442;-81
2022/02/17 14:45:02;;;;;;;;;;;;;;;3.33;95.56;99236.56;4923894;29;19923;-81
2022/02/17 14:47:27;;;;;;;;;;;;;;;3.16;95.03;99229.09;4922218;29;19927;-83
2022/02/17 14:49:53;;;;;;;;;;;;;;;3.04;94.45;99238.03;4921343;29;19946;-80
2022/02/17 14:52:22;;;;;;;;;;;;;;;2.93;93.85;99242.63;4904038;29;19930;-82
2022/02/17 14:54:48;;;;;;;;;;;;;;;3.02;93.57;99244.22;4919904;29;19927;-84
2022/02/17 14:57:14;;;;;;;;;;;;;;;2.87;92.91;99251.50;4922960;29;19994;-81
2022/02/17 14:59:41;;;;;;;;;;;;;;;2.73;92.51;99249.16;4922412;29;20479;-82
2022/02/17 15:02:07;;;;;;;;;;;;;;;2.75;92.00;99246.50;4920123;29;19927;-80
2022/02/17 15:04:32;;;;;;;;;;;;;;;2.65;91.25;99251.06;4921701;29;19965;-84
2022/02/17 15:06:58;;;;;;;;;;;;;;;2.56;90.74;99274.75;4905343;29;20496;-82
2022/02/17 15:09:23;;;;;;;;;;;;;;;2.50;90.30;99267.03;4904481;29;20657;-82
2022/02/17 15:11:48;;;;;;;;;;;;;;;2.43;90.11;99247.13;4902187;29;20574;-80
2022/02/17 15:14:13;;;;;;;;;;;;;;;2.32;89.81;99245.53;4915742;29;19981;-80
2022/02/17 15:16:39;;;;;;;;;;;;;;;2.23;89.61;99263.16;4921158;29;19923;-81
2022/02/17 15:19:04;;;;;;;;;;;;;;;2.25;89.43;99267.47;4902333;29;19931;-83
2022/02/17 15:21:30;;;;;;;;;;;;;;;2.19;88.86;99272.81;4928734;29;20006;-80
2022/02/17 15:23:55;;;;;;;;;;;;;;;2.11;88.69;99269.47;4920083;29;19919;-83
2022/02/17 15:26:20;;;;;;;;;;;;;;;2.00;88.09;99278.31;4903872;29;19982;-82
2022/02/17 15:28:46;;;;;;;;;;;;;;;1.95;88.14;99280.16;4920434;29;19985;-80
2022/02/17 15:31:11;;;;;;;;;;;;;;;1.93;88.33;99286.28;4917279;29;19930;-85
2022/02/17 15:33:39;;;;;;;;;;;;;;;1.88;88.03;99303.78;4920743;29;19922;-82
2022/02/17 15:36:07;;;;;;;;;;;;;;;1.76;87.67;99303.06;4921910;29;20513;-81
2022/02/17 15:38:33;;;;;;;;;;;;;;;1.68;87.12;99304.94;4923857;29;19926;-84
2022/02/17 15:40:58;;;;;;;;;;;;;;;1.62;86.91;99295.44;4927794;29;19922;-81
2022/02/17 15:43:24;;;;;;;;;;;;;;;1.56;86.66;99290.28;4931990;29;20042;-82
2022/02/17 15:45:49;;;;;;;;;;;;;;;1.47;86.46;99290.44;4924815;29;19930;-82
2022/02/17 15:48:15;;;;;;;;;;;;;;;1.57;87.32;99288.56;4924905;29;19982;-84
2022/02/17 15:50:40;;;;;;;;;;;;;;;1.80;89.15;99290.81;4925366;29;19998;-81
2022/02/17 15:53:05;;;;;;;;;;;;;;;2.15;91.70;99294.63;4923884;29;19923;-82
2022/02/17 15:55:31;;;;;;;;;;;;;;;2.48;94.25;99300.19;4909265;29;19923;-80
2022/02/17 15:57:56;;;;;;;;;;;;;;;2.66;96.16;99310.31;4927571;29;19933;-83
2022/02/17 16:00:21;;;;;;;;;;;;;;;2.84;97.23;99313.47;4925192;29;19931;-80
2022/02/17 16:02:46;;;;;;;;;;;;;;;2.98;98.41;99311.47;4923182;29;20010;-84
2022/02/17 16:05:12;;;;;;;;;;;;;;;2.95;98.73;99319.38;4924176;29;19923;-82
2022/02/17 16:07:37;;;;;;;;;;;;;;;3.04;99.51;99319.19;4926126;29;20087;-81
2022/02/17 16:10:07;;;;;;;;;;;;;;;3.11;100.00;99317.31;4903233;29;19927;-80
2022/02/17 16:12:32;;;;;;;;;;;;;;;3.02;100.00;99323.59;4910081;29;19923;-81
2022/02/17 16:14:57;;;;;;;;;;;;;;;3.13;100.00;99325.13;4922831;29;19923;-81
2022/02/17 16:17:23;;;;;;;;;;;;;;;3.06;99.92;99345.34;4926365;29;19951;-80
2022/02/17 16:19:48;;;;;;;;;;;;;;;3.05;100.00;99354.97;4924787;29;19930;-80
2022/02/17 16:22:14;;;;;;;;;;;;;;;3.09;100.00;99354.03;4921323;29;19927;-81
2022/02/17 16:24:42;;;;;;;;;;;;;;;3.12;100.00;99352.22;4923991;29;19958;-84
2022/02/17 16:27:07;;;;;;;;;;;;;;;3.25;100.00;99356.31;4923781;29;19930;-83
2022/02/17 16:29:33;;;;;;;;;;;;;;;3.40;100.00;99350.78;4922662;29;19923;-83
2022/02/17 16:31:58;;;;;;;;;;;;;;;3.44;100.00;99360.28;4924244;29;20394;-80
2022/02/17 16:34:23;;;;;;;;;;;;;;;3.35;100.00;99355.25;4920774;29;19927;-82
2022/02/17 16:36:49;;;;;;;;;;;;;;;3.32;100.00;99367.53;4922939;29;19923;-80
2022/02/17 16:39:17;;;;;;;;;;;;;;;3.33;100.00;99383.22;4918223;29;21626;-88
2022/02/17 16:41:44;;;;;;;;;;;;;;;3.27;100.00;99370.25;4920320;29;20014;-81
2022/02/17 16:44:09;;;;;;;;;;;;;;;3.29;99.90;99376.31;4925269;29;20486;-82
2022/02/17 16:46:35;;;;;;;;;;;;;;;3.34;99.72;99369.25;4924041;29;19986;-82
2022/02/17 16:49:01;;;;;;;;;;;;;;;3.33;99.19;99377.13;4906176;29;19966;-81
2022/02/17 16:51:27;;;;;;;;;;;;;;;3.30;98.88;99385.88;4921295;29;20013;-82
2022/02/17 16:53:52;;;;;;;;;;;;;;;3.36;98.60;99385.78;4900348;29;20435;-81
2022/02/17 16:56:18;;;;;;;;;;;;;;;3.33;98.20;99385.84;4919436;29;19926;-87
2022/02/17 16:58:43;;;;;;;;;;;;;;;3.39;97.78;99393.56;4923956;29;20558;-82
2022/02/17 17:01:09;;;;;;;;;;;;;;;3.55;97.23;99395.91;4922774;29;19930;-83
2022/02/17 17:03:34;;;;;;;;;;;;;;;3.45;96.60;99393.44;4919031;29;19934;-86
2022/02/17 17:06:00;;;;;;;;;;;;;;;3.47;96.09;99393.44;4901171;29;19927;-83
2022/02/17 17:08:26;;;;;;;;;;;;;;;3.56;95.67;99411.59;4917584;29;20582;-84
2022/02/17 17:10:52;;;;;;;;;;;;;;;3.71;94.98;99413.00;4919246;29;19937;-82
2022/02/17 17:13:18;;;;;;;;;;;;;;;3.66;94.37;99400.91;4903992;29;19943;-86
2022/02/17 17:15:43;;;;;;;;;;;;;;;3.72;93.67;99409.50;4926530;29;19950;-86
2022/02/17 17:18:08;;;;;;;;;;;;;;;3.61;92.72;99411.50;4908359;29;20014;-84
2022/02/17 17:20:34;;;;;;;;;;;;;;;3.75;92.50;99416.44;4918232;29;19923;-80
2022/02/17 17:22:59;;;;;;;;;;;;;;;3.70;91.73;99427.03;4920489;29;19974;-83
2022/02/17 17:25:24;;;;;;;;;;;;;;;3.80;91.10;99428.56;4925160;29;19957;-79
2022/02/17 17:27:50;;;;;;;;;;;;;;;3.91;90.39;99432.69;4907597;29;19927;-81
2022/02/17 17:30:16;;;;;;;;;;;;;;;3.87;89.97;99433.69;4906445;29;20455;-80
2022/02/17 17:32:41;;;;;;;;;;;;;;;3.89;89.44;99426.63;4930100;29;19927;-80
2022/02/17 17:35:07;;;;;;;;;;;;;;;3.86;88.94;99443.31;4901336;29;19933;-85
2022/02/17 17:37:32;;;;;;;;;;;;;;;3.95;88.63;99437.00;4919419;29;20463;-82
2022/02/17 17:39:59;;;;;;;;;;;;;;;3.96;88.17;99439.59;4905795;29;20010;-80
2022/02/17 17:42:24;;;;;;;;;;;;;;;3.94;87.87;99446.63;4922724;29;20030;-84
2022/02/17 17:47:33;;;;;;;;;;;;;;;3.97;87.29;99464.91;4922763;29;19930;-81
2022/02/17 17:49:58;;;;;;;;;;;;;;;3.94;87.22;99467.59;4924250;29;19923;-86
2022/02/17 17:52:24;;;;;;;;;;;;;;;3.93;87.12;99468.47;4922100;29;19926;-86
2022/02/17 17:54:53;;;;;;;;;;;;;;;4.04;86.96;99477.88;4920964;29;20080;-82
2022/02/17 17:57:19;;;;;;;;;;;;;;;4.06;86.59;99479.56;4918833;29;20426;-86
2022/02/17 17:59:46;;;;;;;;;;;;;;;4.00;86.36;99484.94;4919618;29;19962;-82
2022/02/17 18:02:11;;;;;;;;;;;;;;;4.04;86.31;99484.00;4915805;29;20488;-86
2022/02/17 18:04:36;;;;;;;;;;;;;;;3.95;86.07;99486.78;4921686;29;19928;-81
2022/02/17 18:07:02;;;;;;;;;;;;;;;3.93;86.00;99483.34;4922154;29;19934;-83
2022/02/17 18:09:27;;;;;;;;;;;;;;;3.92;85.85;99492.94;4921972;29;20539;-83
2022/02/17 18:11:52;;;;;;;;;;;;;;;3.90;85.70;99496.53;4921902;29;20346;-88
2022/02/17 18:14:18;;;;;;;;;;;;;;;3.88;85.59;99498.28;4920959;29;19922;-88
2022/02/17 18:16:43;;;;;;;;;;;;;;;3.91;85.50;99498.22;4919600;29;19930;-85
2022/02/17 18:19:08;;;;;;;;;;;;;;;3.90;85.32;99496.53;4920262;29;20502;-87
2022/02/17 18:21:33;;;;;;;;;;;;;;;3.92;85.17;99494.72;4924892;29;19982;-88
2022/02/17 18:23:59;;;;;;;;;;;;;;;3.93;85.02;99496.47;4920838;29;20017;-87
2022/02/17 18:26:24;;;;;;;;;;;;;;;3.89;84.66;99500.03;4922883;29;20601;-82
2022/02/17 18:28:50;;;;;;;;;;;;;;;3.91;84.50;99492.97;4926188;29;19930;-83
2022/02/17 18:31:15;;;;;;;;;;;;;;;3.92;84.27;99494.72;4922681;29;19931;-85
2022/02/17 18:33:45;;;;;;;;;;;;;;;3.91;84.19;99498.22;4923514;29;19922;-85
2022/02/17 18:36:10;;;;;;;;;;;;;;;3.90;84.14;99499.16;4922909;29;19930;-83
2022/02/17 18:38:36;;;;;;;;;;;;;;;3.96;84.00;99501.66;4925665;29;19923;-82
2022/02/17 18:41:01;;;;;;;;;;;;;;;3.95;83.74;99502.53;4904924;29;19938;-81
2022/02/17 18:43:26;;;;;;;;;;;;;;;3.98;83.61;99499.84;4904312;29;20375;-80
2022/02/17 18:45:52;;;;;;;;;;;;;;;3.98;83.58;99500.69;4906151;29;20598;-85
2022/02/17 18:48:17;;;;;;;;;;;;;;;3.98;83.34;99502.47;4923726;29;19933;-84
2022/02/17 18:50:43;;;;;;;;;;;;;;;3.99;83.17;99504.22;4921098;29;19965;-83
2022/02/17 18:53:08;;;;;;;;;;;;;;;3.99;83.11;99493.72;4917642;29;19929;-80
2022/02/17 18:55:35;;;;;;;;;;;;;;;4.03;82.97;99502.38;4906448;29;19931;-88
2022/02/17 18:58:01;;;;;;;;;;;;;;;4.03;82.93;99503.22;4919803;29;19930;-84
2022/02/17 19:00:32;;;;;;;;;;;;;;;4.06;82.73;99494.44;4915867;29;20864;-83
2022/02/17 19:02:58;;;;;;;;;;;;;;;4.01;82.72;99505.03;4915980;29;19930;-88
2022/02/17 19:05:24;;;;;;;;;;;;;;;4.05;82.35;99508.44;4922791;29;19922;-86
2022/02/17 19:07:49;;;;;;;;;;;;;;;4.03;82.01;99513.72;4929090;29;20428;-82
2022/02/17 19:10:15;;;;;;;;;;;;;;;3.99;81.74;99506.81;4920293;29;20021;-86
2022/02/17 19:12:41;;;;;;;;;;;;;;;4.01;81.47;99505.03;4923548;29;19919;-90
2022/02/17 19:15:07;;;;;;;;;;;;;;;4.03;81.59;99513.72;4929979;29;19977;-87
2022/02/17 19:17:32;;;;;;;;;;;;;;;4.05;81.56;99514.53;4926611;29;19919;-88
2022/02/17 19:19:58;;;;;;;;;;;;;;;4.02;81.38;99517.25;4927428;29;20018;-89
2022/02/17 19:22:25;;;;;;;;;;;;;;;4.04;81.08;99515.47;4924612;29;19937;-83
2022/02/17 19:24:50;;;;;;;;;;;;;;;4.03;81.03;99511.09;4907886;29;19957;-84
2022/02/17 19:27:16;;;;;;;;;;;;;;;4.06;80.68;99504.94;4927005;29;19973;-88
2022/02/17 19:29:42;;;;;;;;;;;;;;;4.03;80.64;99515.50;4911517;29;20480;-87
2022/02/17 19:32:07;;;;;;;;;;;;;;;4.05;80.59;99511.91;4925770;29;19927;-85
2022/02/17 19:34:33;;;;;;;;;;;;;;;4.04;80.23;99498.84;4909765;29;19927;-86
2022/02/17 19:36:59;;;;;;;;;;;;;;;4.05;79.98;99490.09;4925546;29;19930;-88
2022/02/17 19:39:25;;;;;;;;;;;;;;;4.04;79.82;99493.59;4925388;29;20017;-88
2022/02/17 19:41:51;;;;;;;;;;;;;;;4.06;79.73;99490.06;4924805;29;20383;-83
2022/02/17 19:44:20;;;;;;;;;;;;;;;4.09;79.69;99486.53;4927823;29;19927;-88
2022/02/17 19:46:46;;;;;;;;;;;;;;;4.04;79.42;99486.63;4925838;29;19978;-87
2022/02/17 19:49:11;;;;;;;;;;;;;;;4.06;79.30;99487.44;4923226;29;19931;-81
2022/02/17 19:51:36;;;;;;;;;;;;;;;4.06;79.12;99489.19;4908673;29;19927;-83
2022/02/17 19:54:02;;;;;;;;;;;;;;;4.04;79.26;99486.63;4908538;29;19919;-83
2022/02/17 19:56:27;;;;;;;;;;;;;;;4.11;79.13;99493.44;4909085;29;20475;-87
2022/02/17 19:58:53;;;;;;;;;;;;;;;4.09;78.98;99483.91;4926044;29;19986;-81
2022/02/17 20:01:18;;;;;;;;;;;;;;;4.12;78.89;99492.56;4922133;29;19962;-88
2022/02/17 20:03:44;;;;;;;;;;;;;;;4.10;78.75;99494.34;4925293;29;20393;-82
2022/02/17 20:06:11;;;;;;;;;;;;;;;4.12;78.60;99489.06;4920927;29;20401;-83
2022/02/17 20:08:37;;;;;;;;;;;;;;;4.13;78.54;99498.66;4911451;29;19931;-82
2022/02/17 20:11:02;;;;;;;;;;;;;;;4.10;78.35;99496.97;4925748;29;20417;-83
2022/02/17 20:13:27;;;;;;;;;;;;;;;4.11;78.22;99485.56;4927220;29;19923;-83
2022/02/17 20:15:52;;;;;;;;;;;;;;;4.14;78.26;99480.25;4926835;29;19930;-82
2022/02/17 20:18:18;;;;;;;;;;;;;;;4.14;78.14;99479.41;4920451;29;19930;-82
2022/02/17 20:20:43;;;;;;;;;;;;;;;4.12;77.84;99471.56;4928564;29;20522;-86
2022/02/17 20:23:09;;;;;;;;;;;;;;;4.14;77.84;99482.03;4911987;29;20402;-84
2022/02/17 20:25:35;;;;;;;;;;;;;;;4.15;77.86;99492.50;4935293;29;20331;-84
2022/02/17 20:28:00;;;;;;;;;;;;;;;4.17;77.70;99495.09;4922847;29;19931;-88
2022/02/17 20:30:25;;;;;;;;;;;;;;;4.19;77.69;99506.41;4922782;29;19946;-81
2022/02/17 20:32:51;;;;;;;;;;;;;;;4.19;77.61;99499.38;4912787;29;20453;-87
2022/02/17 20:35:16;;;;;;;;;;;;;;;4.18;77.54;99491.56;4907483;29;20375;-83
2022/02/17 20:37:42;;;;;;;;;;;;;;;4.19;77.37;99483.66;4913287;29;19915;-86
2022/02/17 20:40:09;;;;;;;;;;;;;;;4.21;77.19;99482.75;4925729;29;19931;-86